createdAt,value
2023-05-30T00:01:29.316Z,15.31
2023-05-30T00:03:57.269Z,15.50
2023-05-30T00:06:25.076Z,15.54
2023-05-30T00:08:54.438Z,15.23
2023-05-30T00:11:24.709Z,15.32
2023-05-30T00:13:53.203Z,15.40
2023-05-30T00:16:21.375Z,15.05
2023-05-30T00:18:49.133Z,15.39
2023-05-30T00:21:18.974Z,15.35
2023-05-30T00:23:47.572Z,15.31
2023-05-30T00:26:16.931Z,15.48
2023-05-30T00:28:44.794Z,15.45
2023-05-30T00:31:12.605Z,15.45
2023-05-30T00:33:40.821Z,15.19
2023-05-30T00:36:08.932Z,15.20
2023-05-30T00:38:36.709Z,15.51
2023-05-30T00:41:04.600Z,15.44
2023-05-30T00:43:33.731Z,15.25
2023-05-30T00:46:01.723Z,15.50
2023-05-30T00:48:29.568Z,15.38
2023-05-30T00:50:58.107Z,15.48
2023-05-30T00:53:26.161Z,15.30
2023-05-30T00:55:54.552Z,15.74
2023-05-30T00:58:23.215Z,15.56
2023-05-30T01:00:52.452Z,15.54
2023-05-30T01:03:23.606Z,15.54
2023-05-30T01:05:51.846Z,15.51
2023-05-30T01:08:19.599Z,15.59
2023-05-30T01:10:49.268Z,15.67
2023-05-30T01:13:23.300Z,15.51
2023-05-30T01:15:56.029Z,15.60
2023-05-30T01:18:47.402Z,15.61
2023-05-30T01:21:19.167Z,15.55
2023-05-30T01:24:08.574Z,15.79
2023-05-30T01:26:50.246Z,15.57
2023-05-30T01:29:22.733Z,15.75
2023-05-30T01:31:51.371Z,15.79
2023-05-30T01:34:19.381Z,15.68
2023-05-30T01:36:47.141Z,15.65
2023-05-30T01:39:15.141Z,15.15
2023-05-30T01:41:54.589Z,15.48
2023-05-30T01:44:30.686Z,15.32
2023-05-30T01:47:03.824Z,15.37
2023-05-30T01:49:37.131Z,15.81
2023-05-30T01:52:09.821Z,15.77
2023-05-30T01:54:39.053Z,15.95
2023-05-30T01:57:11.232Z,15.89
2023-05-30T01:59:41.173Z,15.57
2023-05-30T02:02:09.360Z,15.59
2023-05-30T02:04:37.375Z,15.56
2023-05-30T02:07:05.518Z,15.37
2023-05-30T02:09:33.275Z,15.68
2023-05-30T02:12:02.738Z,15.45
2023-05-30T02:14:31.937Z,15.49
2023-05-30T02:17:01.473Z,15.20
2023-05-30T02:19:29.276Z,15.52
2023-05-30T02:21:57.134Z,15.54
2023-05-30T02:24:25.930Z,15.93
2023-05-30T02:26:54.057Z,15.78
2023-05-30T02:29:21.886Z,15.47
2023-05-30T02:31:49.684Z,15.30
2023-05-30T02:34:18.815Z,15.26
2023-05-30T02:36:46.593Z,15.42
2023-05-30T02:39:14.356Z,15.13
2023-05-30T02:41:42.254Z,15.63
2023-05-30T02:44:10.249Z,15.12
2023-05-30T02:46:38.049Z,15.31
2023-05-30T02:49:06.538Z,15.75
2023-05-30T02:51:36.353Z,15.53
2023-05-30T02:54:04.240Z,15.51
2023-05-30T02:56:31.997Z,15.36
2023-05-30T02:59:00.425Z,15.46
2023-05-30T03:01:28.312Z,15.61
2023-05-30T03:03:56.288Z,15.53
2023-05-30T03:06:25.525Z,15.72
2023-05-30T03:08:59.246Z,15.34
2023-05-30T03:11:27.237Z,15.18
2023-05-30T03:13:54.975Z,15.12
2023-05-30T03:16:22.969Z,15.04
2023-05-30T03:18:51.092Z,15.08
2023-05-30T03:21:18.898Z,14.84
2023-05-30T03:23:46.647Z,14.95
2023-05-30T03:26:15.906Z,15.34
2023-05-30T03:28:43.665Z,14.99
2023-05-30T03:31:11.989Z,14.80
2023-05-30T03:33:39.746Z,14.79
2023-05-30T03:36:09.201Z,14.80
2023-05-30T03:38:38.110Z,15.07
2023-05-30T03:41:06.156Z,15.41
2023-05-30T03:43:35.309Z,15.42
2023-05-30T03:46:03.101Z,15.26
2023-05-30T03:48:30.842Z,15.70
2023-05-30T03:50:58.862Z,15.14
2023-05-30T03:53:26.811Z,15.12
2023-05-30T03:55:54.670Z,15.36
2023-05-30T03:58:22.408Z,15.35
2023-05-30T04:00:51.527Z,15.65
2023-05-30T04:03:20.834Z,15.84
2023-05-30T04:05:50.038Z,15.93
2023-05-30T04:08:18.222Z,16.05
2023-05-30T04:10:45.998Z,15.84
2023-05-30T04:13:13.743Z,15.85
2023-05-30T04:15:41.710Z,15.93
2023-05-30T04:18:11.333Z,15.98
2023-05-30T04:20:39.243Z,15.75
2023-05-30T04:23:07.969Z,16.05
2023-05-30T04:25:36.541Z,16.08
2023-05-30T04:28:06.254Z,16.21
2023-05-30T04:30:34.552Z,15.97
2023-05-30T04:33:02.393Z,16.46
2023-05-30T04:35:32.596Z,16.58
2023-05-30T04:38:00.966Z,16.08
2023-05-30T04:40:29.135Z,16.02
2023-05-30T04:42:56.981Z,15.75
2023-05-30T04:45:30.115Z,16.04
2023-05-30T04:47:58.210Z,15.88
2023-05-30T04:50:27.789Z,16.22
2023-05-30T04:52:57.008Z,16.04
2023-05-30T04:55:25.352Z,16.03
2023-05-30T04:57:53.113Z,15.35
2023-05-30T05:00:22.757Z,15.67
2023-05-30T05:02:51.627Z,16.03
2023-05-30T05:05:19.463Z,16.30
2023-05-30T05:07:47.339Z,16.27
2023-05-30T05:10:16.477Z,16.35
2023-05-30T05:12:44.262Z,15.73
2023-05-30T05:15:13.240Z,15.42
2023-05-30T05:17:41.120Z,15.72
2023-05-30T05:20:12.432Z,15.60
2023-05-30T05:22:40.851Z,16.20
2023-05-30T05:25:09.598Z,15.82
2023-05-30T05:27:41.864Z,16.13
2023-05-30T05:30:11.653Z,15.70
2023-05-30T05:32:40.049Z,16.55
2023-05-30T05:35:09.737Z,16.65
2023-05-30T05:37:37.824Z,15.91
2023-05-30T05:40:07.013Z,16.31
2023-05-30T05:42:34.950Z,16.54
2023-05-30T05:45:04.331Z,17.24
2023-05-30T05:47:32.096Z,15.96
2023-05-30T05:50:00.037Z,16.23
2023-05-30T05:52:28.340Z,16.26
2023-05-30T05:54:56.137Z,16.35
2023-05-30T05:57:24.838Z,16.25
2023-05-30T05:59:52.567Z,16.59
2023-05-30T06:02:21.896Z,16.47
2023-05-30T06:04:50.725Z,16.94
2023-05-30T06:07:18.646Z,17.62
2023-05-30T06:09:46.393Z,17.82
2023-05-30T06:12:14.169Z,17.60
2023-05-30T06:14:41.915Z,17.45
2023-05-30T06:17:10.102Z,17.52
2023-05-30T06:19:39.229Z,17.71
2023-05-30T06:22:08.882Z,17.91
2023-05-30T06:24:36.734Z,17.74
2023-05-30T06:27:04.752Z,17.84
2023-05-30T06:29:33.014Z,18.21
2023-05-30T06:32:14.347Z,17.95
2023-05-30T06:34:45.738Z,17.44
2023-05-30T06:37:13.777Z,17.06
2023-05-30T06:39:41.996Z,17.32
2023-05-30T06:42:11.356Z,16.95
2023-05-30T06:44:39.225Z,17.57
2023-05-30T06:47:07.750Z,16.66
2023-05-30T06:49:35.492Z,16.87
2023-05-30T06:52:04.876Z,17.95
2023-05-30T06:54:32.810Z,18.12
2023-05-30T06:57:04.083Z,17.12
2023-05-30T06:59:33.133Z,17.58
2023-05-30T07:02:00.943Z,17.17
2023-05-30T07:04:28.921Z,17.19
2023-05-30T07:06:57.147Z,16.98
2023-05-30T07:09:27.258Z,16.85
2023-05-30T07:11:55.144Z,16.74
2023-05-30T07:14:22.890Z,17.01
2023-05-30T07:16:50.684Z,17.96
2023-05-30T07:19:18.443Z,18.40
2023-05-30T07:21:46.220Z,18.03
2023-05-30T07:24:13.969Z,17.41
2023-05-30T07:26:43.267Z,17.97
2023-05-30T07:29:11.047Z,17.94
2023-05-30T07:31:49.315Z,17.67
2023-05-30T07:34:17.168Z,17.79
2023-05-30T07:36:44.950Z,18.56
2023-05-30T07:39:12.709Z,18.09
2023-05-30T07:41:40.528Z,17.80
2023-05-30T07:44:08.290Z,17.66
2023-05-30T07:46:36.208Z,17.97
2023-05-30T07:49:05.407Z,16.97
2023-05-30T07:51:33.540Z,18.19
2023-05-30T07:54:01.299Z,17.55
2023-05-30T07:56:29.059Z,16.77
2023-05-30T07:58:56.789Z,18.03
2023-05-30T08:01:24.546Z,18.12
2023-05-30T08:03:52.507Z,18.37
2023-05-30T08:06:21.789Z,17.86
2023-05-30T08:08:49.540Z,17.89
2023-05-30T08:11:17.304Z,17.57
2023-05-30T08:13:45.372Z,17.46
2023-05-30T08:16:13.810Z,18.09
2023-05-30T08:18:42.646Z,17.98
2023-05-30T08:21:10.961Z,17.81
2023-05-30T08:23:40.681Z,17.95
2023-05-30T08:26:10.074Z,18.42
2023-05-30T08:28:37.926Z,19.03
2023-05-30T08:31:07.043Z,18.82
2023-05-30T08:33:35.876Z,19.05
2023-05-30T08:36:03.711Z,18.93
2023-05-30T08:38:32.367Z,18.24
2023-05-30T08:41:01.537Z,18.18
2023-05-30T08:43:29.390Z,18.99
2023-05-30T08:45:58.148Z,19.29
2023-05-30T08:48:27.000Z,18.77
2023-05-30T08:50:55.343Z,18.59
2023-05-30T08:53:28.277Z,19.03
2023-05-30T08:56:04.161Z,18.96
2023-05-30T08:58:36.325Z,19.03
2023-05-30T09:01:05.211Z,19.05
2023-05-30T09:03:36.373Z,18.96
2023-05-30T09:06:04.869Z,18.72
2023-05-30T09:08:33.149Z,18.59
2023-05-30T09:11:04.101Z,19.19
2023-05-30T09:13:31.871Z,18.79
2023-05-30T09:15:59.607Z,18.04
2023-05-30T09:21:00.553Z,20.23
2023-05-30T09:23:30.260Z,19.04
2023-05-30T09:26:00.964Z,18.70
2023-05-30T09:28:30.526Z,20.38
2023-05-30T09:31:01.829Z,20.62
2023-05-30T09:33:44.512Z,19.67
2023-05-30T09:36:17.184Z,19.76
2023-05-30T09:38:54.886Z,19.30
2023-05-30T09:41:22.732Z,19.06
2023-05-30T09:43:55.171Z,19.42
2023-05-30T09:46:23.827Z,19.57
2023-05-30T09:48:52.174Z,20.00
2023-05-30T09:51:23.276Z,19.21
2023-05-30T09:54:01.431Z,18.93
2023-05-30T09:56:34.890Z,18.47
2023-05-30T09:59:08.086Z,19.69
2023-05-30T10:01:41.283Z,19.56
2023-05-30T10:04:13.516Z,19.00
2023-05-30T10:06:43.550Z,20.25
2023-05-30T10:09:12.496Z,20.83
2023-05-30T10:11:41.927Z,20.68
2023-05-30T10:14:12.658Z,20.87
2023-05-30T10:16:49.247Z,20.26
2023-05-30T10:19:20.009Z,19.14
2023-05-30T10:21:48.097Z,20.06
2023-05-30T10:24:17.896Z,20.13
2023-05-30T10:26:51.207Z,20.36
2023-05-30T10:29:23.620Z,20.53
2023-05-30T10:31:55.325Z,21.96
2023-05-30T10:34:36.529Z,20.24
2023-05-30T10:37:04.760Z,20.49
2023-05-30T10:39:38.637Z,21.91
2023-05-30T10:42:13.182Z,21.35
2023-05-30T10:44:55.777Z,22.12
2023-05-30T10:47:39.209Z,22.45
2023-05-30T10:50:12.507Z,22.64
2023-05-30T10:52:40.259Z,22.89
2023-05-30T10:55:11.700Z,22.08
2023-05-30T10:57:39.526Z,19.63
2023-05-30T11:00:22.981Z,22.58
2023-05-30T11:02:52.842Z,23.10
2023-05-30T11:05:23.994Z,21.36
2023-05-30T11:07:52.056Z,22.55
2023-05-30T11:10:27.838Z,22.41
2023-05-30T11:13:08.880Z,22.57
2023-05-30T11:15:44.041Z,22.45
2023-05-30T11:18:19.062Z,22.76
2023-05-30T11:20:52.703Z,23.68
2023-05-30T11:23:23.043Z,21.86
2023-05-30T11:25:53.859Z,21.69
2023-05-30T11:28:36.151Z,22.22
2023-05-30T11:31:20.870Z,23.11
2023-05-30T11:33:49.941Z,23.49
2023-05-30T11:36:18.017Z,23.62
2023-05-30T11:38:48.062Z,23.69
2023-05-30T11:41:16.409Z,23.44
2023-05-30T11:43:44.877Z,24.38
2023-05-30T11:46:12.796Z,24.12
2023-05-30T11:48:42.530Z,24.11
2023-05-30T11:51:10.646Z,23.79
2023-05-30T11:53:38.406Z,23.24
2023-05-30T11:56:06.576Z,22.37
2023-05-30T11:58:34.422Z,22.80
2023-05-30T12:01:02.619Z,22.64
2023-05-30T12:03:32.666Z,21.60
2023-05-30T12:06:12.439Z,24.00
2023-05-30T12:08:41.818Z,23.49
2023-05-30T12:11:12.157Z,22.86
2023-05-30T12:13:39.989Z,23.33
2023-05-30T12:16:08.573Z,23.30
2023-05-30T12:18:36.827Z,22.96
2023-05-30T12:21:06.354Z,22.24
2023-05-30T12:23:34.200Z,23.29
2023-05-30T12:26:01.993Z,22.98
2023-05-30T12:28:29.852Z,23.86
2023-05-30T12:30:58.581Z,22.93
2023-05-30T12:33:28.569Z,22.74
2023-05-30T12:35:58.215Z,24.41
2023-05-30T12:38:27.348Z,24.17
2023-05-30T12:40:55.122Z,23.99
2023-05-30T12:43:27.987Z,25.46
2023-05-30T12:46:00.796Z,24.86
2023-05-30T12:48:28.613Z,24.73
2023-05-30T12:50:56.550Z,24.52
2023-05-30T12:53:24.334Z,24.06
2023-05-30T12:55:53.523Z,25.42
2023-05-30T12:58:21.776Z,24.23
2023-05-30T13:00:49.558Z,22.94
2023-05-30T13:03:18.749Z,23.95
2023-05-30T13:05:48.884Z,25.14
2023-05-30T13:08:16.976Z,24.45
2023-05-30T13:10:45.016Z,23.51
2023-05-30T13:13:14.213Z,23.89
2023-05-30T13:15:42.383Z,23.08
2023-05-30T13:18:10.259Z,23.48
2023-05-30T13:20:38.106Z,24.48
2023-05-30T13:23:06.149Z,23.75
2023-05-30T13:25:33.975Z,23.85
2023-05-30T13:28:01.706Z,22.84
2023-05-30T13:30:30.843Z,24.23
2023-05-30T13:32:58.620Z,24.47
2023-05-30T13:35:26.419Z,25.05
2023-05-30T13:37:54.787Z,22.34
2023-05-30T13:40:22.598Z,22.03
2023-05-30T13:42:50.651Z,22.55
2023-05-30T13:45:19.819Z,23.39
2023-05-30T13:47:49.051Z,24.26
2023-05-30T13:50:18.712Z,24.35
2023-05-30T13:52:48.232Z,23.12
2023-05-30T13:55:15.984Z,24.27
2023-05-30T13:57:43.720Z,24.66
2023-05-30T14:00:12.770Z,24.34
2023-05-30T14:02:40.719Z,25.10
2023-05-30T14:05:12.734Z,24.96
2023-05-30T14:07:41.748Z,25.09
2023-05-30T14:10:10.154Z,24.62
2023-05-30T14:12:37.990Z,24.88
2023-05-30T14:15:06.995Z,25.64
2023-05-30T14:17:35.109Z,25.39
2023-05-30T14:20:02.924Z,24.45
2023-05-30T14:22:32.131Z,23.13
2023-05-30T14:24:59.869Z,24.28
2023-05-30T14:27:27.640Z,24.72
2023-05-30T14:29:55.486Z,24.66
2023-05-30T14:32:23.288Z,24.26
2023-05-30T14:34:51.318Z,25.12
2023-05-30T14:37:19.090Z,24.83
2023-05-30T14:39:49.129Z,25.43
2023-05-30T14:42:16.920Z,24.36
2023-05-30T14:44:44.648Z,23.39
2023-05-30T14:47:12.417Z,25.37
2023-05-30T14:49:40.184Z,23.12
2023-05-30T14:52:08.134Z,22.73
2023-05-30T14:54:35.856Z,23.75
2023-05-30T14:57:05.720Z,23.56
2023-05-30T14:59:33.707Z,23.99
2023-05-30T15:02:02.323Z,23.61
2023-05-30T15:04:30.379Z,22.43
2023-05-30T15:06:58.226Z,23.60
2023-05-30T15:09:26.733Z,24.39
2023-05-30T15:11:54.513Z,23.30
2023-05-30T15:14:23.684Z,23.35
2023-05-30T15:16:51.492Z,24.47
2023-05-30T15:19:19.521Z,24.40
2023-05-30T15:21:47.289Z,23.45
2023-05-30T15:24:15.060Z,23.90
2023-05-30T15:26:42.903Z,24.57
2023-05-30T15:29:10.636Z,24.20
2023-05-30T15:31:39.888Z,22.73
2023-05-30T15:34:07.910Z,24.50
2023-05-30T15:36:35.674Z,24.01
2023-05-30T15:39:03.515Z,25.06
2023-05-30T15:41:31.261Z,24.27
2023-05-30T15:44:02.771Z,23.60
2023-05-30T15:46:30.957Z,23.97
2023-05-30T15:49:00.230Z,24.75
2023-05-30T15:51:29.243Z,24.06
2023-05-30T15:53:57.012Z,24.79
2023-05-30T15:56:24.951Z,23.08
2023-05-30T15:58:52.696Z,23.81
2023-05-30T16:01:20.640Z,24.64
2023-05-30T16:03:48.986Z,23.95
2023-05-30T16:06:20.419Z,23.74
2023-05-30T16:08:48.228Z,23.65
2023-05-30T16:11:16.035Z,23.47
2023-05-30T16:13:43.789Z,22.04
2023-05-30T16:16:11.577Z,23.07
2023-05-30T16:18:39.332Z,24.04
2023-05-30T16:21:07.324Z,25.09
2023-05-30T16:23:36.410Z,24.92
2023-05-30T16:26:04.148Z,24.16
2023-05-30T16:28:31.874Z,23.89
2023-05-30T16:30:59.757Z,23.41
2023-05-30T16:33:28.323Z,24.13
2023-05-30T16:36:08.039Z,23.81
2023-05-30T16:38:39.388Z,23.49
2023-05-30T16:41:13.479Z,23.75
2023-05-30T16:43:43.195Z,24.76
2023-05-30T16:46:11.648Z,24.26
2023-05-30T16:48:39.516Z,23.79
2023-05-30T16:51:07.507Z,24.37
2023-05-30T16:53:35.947Z,23.93
2023-05-30T16:56:16.340Z,23.72
2023-05-30T16:58:46.020Z,23.99
2023-05-30T17:01:14.135Z,23.68
2023-05-30T17:03:42.377Z,22.96
2023-05-30T17:06:10.982Z,23.82
2023-05-30T17:08:39.144Z,23.46
2023-05-30T17:11:08.316Z,23.24
2023-05-30T17:13:36.126Z,23.96
2023-05-30T17:16:05.566Z,23.81
2023-05-30T17:18:33.430Z,23.56
2023-05-30T17:21:02.618Z,23.89
2023-05-30T17:23:30.701Z,23.26
2023-05-30T17:26:02.588Z,22.26
2023-05-30T17:28:33.081Z,22.67
2023-05-30T17:31:01.345Z,22.44
2023-05-30T17:33:29.529Z,21.33
2023-05-30T17:35:57.323Z,20.92
2023-05-30T17:38:25.366Z,21.63
2023-05-30T17:40:53.215Z,21.62
2023-05-30T17:43:21.930Z,20.58
2023-05-30T17:45:51.272Z,21.26
2023-05-30T17:48:19.034Z,21.80
2023-05-30T17:50:46.795Z,22.37
2023-05-30T17:53:14.810Z,21.99
2023-05-30T17:55:42.544Z,22.35
2023-05-30T17:58:10.291Z,22.03
2023-05-30T18:00:40.204Z,22.47
2023-05-30T18:03:09.322Z,22.79
2023-05-30T18:05:38.340Z,22.33
2023-05-30T18:08:06.156Z,22.49
2023-05-30T18:10:33.916Z,22.19
2023-05-30T18:13:01.695Z,22.89
2023-05-30T18:15:29.566Z,22.63
2023-05-30T18:17:57.379Z,22.39
2023-05-30T18:20:26.732Z,22.75
2023-05-30T18:22:54.493Z,22.56
2023-05-30T18:25:22.368Z,22.49
2023-05-30T18:27:50.115Z,22.33
2023-05-30T18:30:18.342Z,22.80
2023-05-30T18:32:46.278Z,22.09
2023-05-30T18:35:14.098Z,21.73
2023-05-30T18:37:43.313Z,21.92
2023-05-30T18:40:13.169Z,21.59
2023-05-30T18:42:42.984Z,21.70
2023-05-30T18:45:11.607Z,21.42
2023-05-30T18:47:39.465Z,21.54
2023-05-30T18:50:08.134Z,21.10
2023-05-30T18:52:35.977Z,20.93
2023-05-30T18:55:05.506Z,21.00
2023-05-30T18:57:33.241Z,20.89
2023-05-30T19:00:01.239Z,20.64
2023-05-30T19:02:29.753Z,20.32
2023-05-30T19:04:57.653Z,20.44
2023-05-30T19:07:25.914Z,20.20
2023-05-30T19:09:59.390Z,20.40
2023-05-30T19:12:51.122Z,20.54
2023-05-30T19:15:19.284Z,20.17
2023-05-30T19:17:47.070Z,20.31
2023-05-30T19:20:14.963Z,20.08
2023-05-30T19:22:42.766Z,20.23
2023-05-30T19:25:10.776Z,19.85
2023-05-30T19:27:39.982Z,19.87
2023-05-30T19:30:08.898Z,19.81
2023-05-30T19:32:36.868Z,19.74
2023-05-30T19:35:05.127Z,19.69
2023-05-30T19:37:32.898Z,19.46
2023-05-30T19:40:00.765Z,19.78
2023-05-30T19:42:28.591Z,19.29
2023-05-30T19:44:57.737Z,19.64
2023-05-30T19:47:25.736Z,18.89
2023-05-30T19:49:53.503Z,18.73
2023-05-30T19:52:21.280Z,18.96
2023-05-30T19:54:49.043Z,19.17
2023-05-30T19:57:17.705Z,19.17
2023-05-30T19:59:45.537Z,18.94
2023-05-30T20:02:14.942Z,19.03
2023-05-30T20:04:42.707Z,18.66
2023-05-30T20:07:10.497Z,19.10
2023-05-30T20:09:38.398Z,18.86
2023-05-30T20:12:06.943Z,18.83
2023-05-30T20:14:36.169Z,18.80
2023-05-30T20:17:03.967Z,18.67
2023-05-30T20:19:33.094Z,18.93
2023-05-30T20:22:00.938Z,18.90
2023-05-30T20:24:28.826Z,18.62
2023-05-30T20:26:56.630Z,18.02
2023-05-30T20:29:25.162Z,18.10
2023-05-30T20:31:53.135Z,18.07
2023-05-30T20:34:21.020Z,17.86
2023-05-30T20:36:50.191Z,18.12
2023-05-30T20:39:18.025Z,18.44
2023-05-30T20:41:47.004Z,18.42
2023-05-30T20:44:15.942Z,18.38
2023-05-30T20:46:43.774Z,17.58
2023-05-30T20:49:11.577Z,18.03
2023-05-30T20:51:40.027Z,17.92
2023-05-30T20:54:09.271Z,17.48
2023-05-30T20:56:37.016Z,17.16
2023-05-30T20:59:04.852Z,17.10
2023-05-30T21:01:32.672Z,17.21
2023-05-30T21:04:00.545Z,16.99
2023-05-30T21:06:28.402Z,16.94
2023-05-30T21:08:56.172Z,16.99
2023-05-30T21:11:25.399Z,17.19
2023-05-30T21:13:53.152Z,16.70
2023-05-30T21:16:22.826Z,16.56
2023-05-30T21:18:50.686Z,16.57
2023-05-30T21:21:18.478Z,17.15
2023-05-30T21:23:46.213Z,17.50
2023-05-30T21:26:14.049Z,16.70
2023-05-30T21:28:43.152Z,16.72
2023-05-30T21:31:10.945Z,17.20
2023-05-30T21:33:38.680Z,17.06
2023-05-30T21:36:07.124Z,16.59
2023-05-30T21:38:34.904Z,16.94
2023-05-30T21:41:02.720Z,16.78
2023-05-30T21:43:30.623Z,16.84
2023-05-30T21:45:59.781Z,16.66
2023-05-30T21:48:27.588Z,16.58
2023-05-30T21:50:55.420Z,16.76
2023-05-30T21:53:23.179Z,16.83
2023-05-30T21:55:50.961Z,16.28
2023-05-30T21:58:18.721Z,16.54
2023-05-30T22:00:47.878Z,15.77
2023-05-30T22:03:18.522Z,15.57
2023-05-30T22:05:46.502Z,15.68
2023-05-30T22:08:14.491Z,15.40
2023-05-30T22:10:42.679Z,15.55
2023-05-30T22:13:11.412Z,16.14
2023-05-30T22:15:39.203Z,15.75
2023-05-30T22:18:07.153Z,16.14
2023-05-30T22:20:36.368Z,16.16
2023-05-30T22:23:04.164Z,15.62
2023-05-30T22:25:31.915Z,15.62
2023-05-30T22:27:59.768Z,15.55
2023-05-30T22:30:27.583Z,15.53
2023-05-30T22:32:56.005Z,15.33
2023-05-30T22:35:24.221Z,15.07
2023-05-30T22:37:53.332Z,14.99
2023-05-30T22:40:21.529Z,15.01
2023-05-30T22:42:49.282Z,14.82
2023-05-30T22:45:17.064Z,14.81
2023-05-30T22:47:44.833Z,14.79
2023-05-30T22:50:12.659Z,14.82
2023-05-30T22:52:40.497Z,14.87
2023-05-30T22:55:09.894Z,14.40
2023-05-30T22:57:37.632Z,14.51
2023-05-30T23:00:06.993Z,14.50
2023-05-30T23:02:34.938Z,14.62
2023-05-30T23:05:03.002Z,14.60
2023-05-30T23:07:30.724Z,14.39
2023-05-30T23:09:58.464Z,14.63
2023-05-30T23:12:27.621Z,14.40
2023-05-30T23:14:55.352Z,14.74
2023-05-30T23:17:23.102Z,14.80
2023-05-30T23:19:50.934Z,14.79
2023-05-30T23:22:19.064Z,15.17
2023-05-30T23:24:46.824Z,14.70
2023-05-30T23:27:14.656Z,15.16
2023-05-30T23:29:43.827Z,15.07
2023-05-30T23:32:11.591Z,14.78
2023-05-30T23:34:39.319Z,14.82
2023-05-30T23:37:07.388Z,14.79
2023-05-30T23:39:35.441Z,14.74
2023-05-30T23:42:03.223Z,14.80
2023-05-30T23:44:31.021Z,14.71
2023-05-30T23:47:00.222Z,14.75
2023-05-30T23:49:27.988Z,14.74
2023-05-30T23:51:55.753Z,14.48
2023-05-30T23:54:23.643Z,14.65
2023-05-30T23:56:51.391Z,14.79
2023-05-30T23:59:19.136Z,14.42
